Time;durP1;ratioP1;P1;durP2;ratioP2;P2;SDS_P1;SDS_P2;PMS_P1;PMS_P2;Temp;Humidity;BMP_temperature;BMP_pressure;BME280_temperature;BME280_humidity;BME280_pressure;Samples;Min_cycle;Max_cycle;Signal;HPM_P1;HPM_P2
2021/08/14 00:00:57;;;;;;;12.70;6.30;;;15.00;99.90;;;;;;5093386;28;20044;-69
2021/08/14 00:03:24;;;;;;;10.38;5.72;;;14.90;99.90;;;;;;5095492;28;20028;-76
2021/08/14 00:05:49;;;;;;;14.20;5.95;;;14.90;99.90;;;;;;5094772;28;20055;-71
2021/08/14 00:08:15;;;;;;;13.40;5.72;;;14.90;99.90;;;;;;5095338;28;20100;-72
2021/08/14 00:10:40;;;;;;;11.85;5.03;;;14.90;99.90;;;;;;5094850;28;20040;-70
2021/08/14 00:13:06;;;;;;;14.68;6.22;;;14.90;99.90;;;;;;5094750;28;20040;-70
2021/08/14 00:15:32;;;;;;;12.65;6.20;;;14.90;99.90;;;;;;5094172;28;20023;-70
2021/08/14 00:17:57;;;;;;;12.27;5.63;;;14.90;99.90;;;;;;5093940;28;20024;-71
2021/08/14 00:20:23;;;;;;;11.70;4.82;;;14.90;99.90;;;;;;5092600;28;20020;-74
2021/08/14 00:22:48;;;;;;;12.95;4.90;;;14.90;99.90;;;;;;5094944;28;20028;-76
2021/08/14 00:25:14;;;;;;;11.68;5.22;;;14.90;99.90;;;;;;5094712;28;20016;-73
2021/08/14 00:27:39;;;;;;;11.30;5.45;;;14.90;99.90;;;;;;5094705;28;20487;-70
2021/08/14 00:30:06;;;;;;;9.75;5.20;;;14.80;99.90;;;;;;5094992;28;20073;-76
2021/08/14 00:32:32;;;;;;;11.88;5.50;;;14.80;99.90;;;;;;5094483;28;20039;-72
2021/08/14 00:34:57;;;;;;;13.88;6.15;;;14.90;99.90;;;;;;5094806;28;20024;-71
2021/08/14 00:37:23;;;;;;;13.05;5.75;;;14.90;99.90;;;;;;5094590;28;20468;-72
2021/08/14 00:39:50;;;;;;;12.18;5.63;;;15.00;99.90;;;;;;5092757;28;20048;-72
2021/08/14 00:42:16;;;;;;;13.70;5.18;;;15.00;99.90;;;;;;5093889;28;20476;-70
2021/08/14 00:44:41;;;;;;;12.38;5.75;;;15.10;99.90;;;;;;5092700;28;20031;-72
2021/08/14 00:47:07;;;;;;;11.57;4.97;;;15.10;99.90;;;;;;5094165;28;20032;-77
2021/08/14 00:49:33;;;;;;;11.07;5.13;;;15.20;99.90;;;;;;5094426;28;20024;-70
2021/08/14 00:51:59;;;;;;;12.85;5.25;;;15.20;99.90;;;;;;5094488;28;20076;-70
2021/08/14 00:54:25;;;;;;;13.95;5.43;;;15.20;99.90;;;;;;5093499;28;20055;-70
2021/08/14 00:56:51;;;;;;;13.95;6.50;;;15.20;99.90;;;;;;5094416;28;20104;-70
2021/08/14 00:59:16;;;;;;;10.32;4.95;;;15.20;99.90;;;;;;5094496;28;20032;-70
2021/08/14 01:01:42;;;;;;;14.23;6.07;;;15.20;99.90;;;;;;5092919;28;20357;-70
2021/08/14 01:04:14;;;;;;;14.85;6.45;;;15.30;99.90;;;;;;5094224;28;20043;-70
2021/08/14 01:06:39;;;;;;;14.00;5.50;;;15.30;99.90;;;;;;5092718;28;20032;-70
2021/08/14 01:09:05;;;;;;;14.60;5.50;;;15.40;99.90;;;;;;5093085;28;20031;-70
2021/08/14 01:11:31;;;;;;;13.80;6.18;;;15.40;99.90;;;;;;5092606;28;20040;-70
2021/08/14 01:13:57;;;;;;;13.65;6.68;;;15.40;99.90;;;;;;5094095;28;20028;-70
2021/08/14 01:16:25;;;;;;;14.30;5.63;;;15.30;99.90;;;;;;5093173;28;20103;-70
2021/08/14 01:18:51;;;;;;;10.38;4.97;;;15.30;99.90;;;;;;5093626;28;20114;-74
2021/08/14 01:21:22;;;;;;;11.32;4.97;;;15.30;99.90;;;;;;5093771;28;20107;-70
2021/08/14 01:23:49;;;;;;;11.70;5.47;;;15.20;99.90;;;;;;5092891;28;20027;-69
2021/08/14 01:26:15;;;;;;;13.15;5.43;;;15.10;99.90;;;;;;5093900;28;20020;-71
2021/08/14 01:28:42;;;;;;;12.73;5.68;;;15.10;99.90;;;;;;5093029;28;20028;-70
2021/08/14 01:31:10;;;;;;;10.98;5.80;;;15.00;99.90;;;;;;5093907;28;20480;-71
2021/08/14 01:33:38;;;;;;;13.27;5.78;;;15.00;99.90;;;;;;5093934;28;20036;-70
2021/08/14 01:36:06;;;;;;;12.38;5.57;;;15.00;99.90;;;;;;5092604;28;20035;-71
2021/08/14 01:38:31;;;;;;;14.00;5.72;;;15.00;99.90;;;;;;5093499;28;20515;-70
2021/08/14 01:40:57;;;;;;;14.60;5.75;;;14.90;99.90;;;;;;5092968;28;20060;-69
2021/08/14 01:43:23;;;;;;;14.32;5.97;;;14.90;99.90;;;;;;5092993;28;20416;-70
2021/08/14 01:45:49;;;;;;;13.02;5.80;;;14.90;99.90;;;;;;5092740;28;20024;-70
2021/08/14 01:48:15;;;;;;;37.20;20.98;;;15.00;99.90;;;;;;5091780;28;20035;-70
2021/08/14 01:50:42;;;;;;;79.70;43.75;;;15.00;99.90;;;;;;5092060;28;20051;-70
2021/08/14 01:53:07;;;;;;;66.47;35.25;;;15.10;99.90;;;;;;5093309;28;20028;-69
2021/08/14 01:55:33;;;;;;;48.63;25.80;;;15.10;99.90;;;;;;5093207;28;20035;-70
2021/08/14 01:57:59;;;;;;;29.27;15.55;;;15.20;99.90;;;;;;5092492;28;20028;-69
2021/08/14 02:00:24;;;;;;;24.13;11.10;;;15.20;99.90;;;;;;5091443;28;20026;-69
2021/08/14 02:02:50;;;;;;;24.40;9.27;;;15.20;99.90;;;;;;5092749;28;20507;-69
2021/08/14 02:05:16;;;;;;;17.83;7.63;;;15.20;99.90;;;;;;5092209;28;20038;-69
2021/08/14 02:07:42;;;;;;;15.10;7.63;;;15.30;99.90;;;;;;5091980;28;20383;-69
2021/08/14 02:10:09;;;;;;;11.77;6.18;;;15.30;99.90;;;;;;5093080;28;20023;-70
2021/08/14 02:12:35;;;;;;;13.60;6.22;;;15.20;99.90;;;;;;5092305;28;20051;-69
2021/08/14 02:15:00;;;;;;;12.50;5.93;;;15.20;99.90;;;;;;5093026;28;20094;-69
2021/08/14 02:17:26;;;;;;;15.32;6.55;;;15.20;99.90;;;;;;5093173;28;20024;-70
2021/08/14 02:19:51;;;;;;;14.35;6.10;;;15.10;99.90;;;;;;5091508;28;20464;-69
2021/08/14 02:22:17;;;;;;;15.23;6.18;;;15.10;99.90;;;;;;5093120;28;20051;-68
2021/08/14 02:24:42;;;;;;;13.57;6.22;;;15.00;99.90;;;;;;5092677;28;20024;-79
2021/08/14 02:27:08;;;;;;;13.90;6.72;;;15.00;99.90;;;;;;5092603;28;20031;-71
2021/08/14 02:29:34;;;;;;;15.82;5.95;;;14.90;99.90;;;;;;5092937;28;20024;-69
2021/08/14 02:32:00;;;;;;;15.75;6.53;;;14.90;99.90;;;;;;5092346;28;20035;-70
2021/08/14 02:34:26;;;;;;;20.13;7.43;;;14.90;99.90;;;;;;5092629;28;20032;-70
2021/08/14 02:36:52;;;;;;;11.27;5.80;;;14.80;99.90;;;;;;5092064;28;20120;-70
2021/08/14 02:39:18;;;;;;;12.52;6.43;;;14.80;99.90;;;;;;5092148;28;20073;-70
2021/08/14 02:41:43;;;;;;;12.95;6.90;;;14.70;99.90;;;;;;5090839;28;20032;-69
2021/08/14 02:44:09;;;;;;;14.50;6.63;;;14.70;99.90;;;;;;5091064;28;20052;-72
2021/08/14 02:46:34;;;;;;;13.68;6.90;;;14.70;99.90;;;;;;5087031;28;20388;-71
2021/08/14 02:49:00;;;;;;;14.20;6.75;;;14.70;99.90;;;;;;5090803;28;20166;-71
2021/08/14 02:51:26;;;;;;;13.40;6.43;;;14.70;99.90;;;;;;5092240;28;20036;-69
2021/08/14 02:53:51;;;;;;;12.45;6.70;;;14.60;99.90;;;;;;5091964;28;20040;-70
2021/08/14 02:56:17;;;;;;;13.10;7.07;;;14.60;99.90;;;;;;5092978;28;20081;-70
2021/08/14 02:58:42;;;;;;;15.48;6.13;;;14.60;99.90;;;;;;5092124;28;20031;-69
2021/08/14 03:01:08;;;;;;;12.35;6.40;;;14.50;99.90;;;;;;5091593;28;20333;-70
2021/08/14 03:03:33;;;;;;;15.38;6.95;;;14.60;99.90;;;;;;5092093;28;20156;-69
2021/08/14 03:05:59;;;;;;;14.95;6.75;;;14.60;99.90;;;;;;5092377;28;20020;-70
2021/08/14 03:08:24;;;;;;;15.45;7.25;;;14.50;99.90;;;;;;5091551;28;20468;-69
2021/08/14 03:10:50;;;;;;;16.13;6.90;;;14.50;99.90;;;;;;5090365;28;20051;-69
2021/08/14 03:13:16;;;;;;;9.15;6.05;;;14.50;99.90;;;;;;5092197;28;20040;-69
2021/08/14 03:15:42;;;;;;;13.35;6.68;;;14.50;99.90;;;;;;5091623;28;20031;-69
2021/08/14 03:18:07;;;;;;;19.00;7.50;;;14.40;99.90;;;;;;5095014;28;20081;-69
2021/08/14 03:20:34;;;;;;;18.67;7.47;;;14.50;99.90;;;;;;5095993;28;20023;-69
2021/08/14 03:23:00;;;;;;;12.98;6.60;;;14.50;99.90;;;;;;5095291;28;20024;-69
2021/08/14 03:25:26;;;;;;;16.25;6.82;;;14.50;99.90;;;;;;5096457;28;20017;-69
2021/08/14 03:27:52;;;;;;;17.35;6.40;;;14.50;99.90;;;;;;5096270;28;20051;-72
2021/08/14 03:30:18;;;;;;;11.60;6.75;;;14.40;99.90;;;;;;5095360;28;20106;-69
2021/08/14 03:32:45;;;;;;;15.88;7.15;;;14.40;99.90;;;;;;5095697;28;20442;-70
2021/08/14 03:35:12;;;;;;;15.57;7.07;;;14.40;99.90;;;;;;5095375;28;20380;-69
2021/08/14 03:37:38;;;;;;;14.10;7.35;;;14.40;99.90;;;;;;5096211;28;20031;-69
2021/08/14 03:40:06;;;;;;;16.85;7.05;;;14.40;99.90;;;;;;5095441;28;20028;-69
2021/08/14 03:42:31;;;;;;;15.00;7.18;;;14.30;99.90;;;;;;5095529;28;20530;-70
2021/08/14 03:44:57;;;;;;;16.70;6.63;;;14.30;99.90;;;;;;5095061;28;20028;-69
2021/08/14 03:47:22;;;;;;;14.13;6.88;;;14.30;99.90;;;;;;5096158;28;20020;-70
2021/08/14 03:49:48;;;;;;;17.45;8.40;;;14.30;99.90;;;;;;5094631;28;20016;-70
2021/08/14 03:52:13;;;;;;;13.00;6.30;;;14.30;99.90;;;;;;5095802;28;20034;-69
2021/08/14 03:54:42;;;;;;;15.25;7.07;;;14.30;99.90;;;;;;5095493;28;20021;-69
2021/08/14 03:57:08;;;;;;;14.95;7.13;;;14.30;99.90;;;;;;5095326;28;20020;-70
2021/08/14 03:59:33;;;;;;;12.00;6.93;;;14.30;99.90;;;;;;5095179;28;20032;-69
2021/08/14 04:01:59;;;;;;;17.58;8.02;;;14.40;99.90;;;;;;5094910;28;20020;-70
2021/08/14 04:04:24;;;;;;;12.60;7.75;;;14.30;99.90;;;;;;5094797;28;20036;-71
2021/08/14 04:06:50;;;;;;;12.70;7.65;;;14.40;99.90;;;;;;5095214;28;20395;-72
2021/08/14 04:09:15;;;;;;;12.45;8.13;;;14.40;99.90;;;;;;5094863;28;20480;-70
2021/08/14 04:11:43;;;;;;;23.23;8.20;;;14.40;99.90;;;;;;5093660;28;20098;-69
2021/08/14 04:14:09;;;;;;;12.38;7.32;;;14.40;99.90;;;;;;5094155;28;20036;-69
2021/08/14 04:16:34;;;;;;;13.52;7.60;;;14.40;99.90;;;;;;5095522;28;20030;-69
2021/08/14 04:19:00;;;;;;;14.93;8.10;;;14.40;99.90;;;;;;5094363;28;20613;-69
2021/08/14 04:21:26;;;;;;;14.90;7.82;;;14.40;99.90;;;;;;5094356;28;20129;-69
2021/08/14 04:23:52;;;;;;;14.45;7.55;;;14.40;99.90;;;;;;5094754;28;20023;-69
2021/08/14 04:26:17;;;;;;;14.48;7.68;;;14.30;99.90;;;;;;5093446;28;20021;-71
2021/08/14 04:28:43;;;;;;;14.30;7.90;;;14.40;99.90;;;;;;5093476;28;20032;-70
2021/08/14 04:31:08;;;;;;;15.70;7.60;;;14.40;99.90;;;;;;5095096;28;20038;-69
2021/08/14 04:33:34;;;;;;;11.35;7.65;;;14.40;99.90;;;;;;5094478;28;20032;-69
2021/08/14 04:35:59;;;;;;;14.27;7.20;;;14.40;99.90;;;;;;5093116;28;20377;-69
2021/08/14 04:38:25;;;;;;;15.13;8.52;;;14.40;99.90;;;;;;5094564;28;20024;-70
2021/08/14 04:40:50;;;;;;;13.63;8.13;;;14.40;99.90;;;;;;5093600;28;20503;-70
2021/08/14 04:43:16;;;;;;;16.35;8.45;;;14.50;99.90;;;;;;5094975;28;20019;-70
2021/08/14 04:45:41;;;;;;;20.90;9.40;;;14.50;99.90;;;;;;5093014;28;20458;-69
2021/08/14 04:48:07;;;;;;;14.60;8.40;;;14.60;99.90;;;;;;5093649;28;20419;-69
2021/08/14 04:50:33;;;;;;;14.68;8.23;;;14.60;99.90;;;;;;5094159;28;20032;-71
2021/08/14 04:52:58;;;;;;;14.45;8.27;;;14.70;99.90;;;;;;5093610;28;20443;-69
2021/08/14 04:55:24;;;;;;;18.50;8.65;;;14.70;99.90;;;;;;5094565;28;20020;-69
2021/08/14 04:57:49;;;;;;;16.52;8.45;;;14.80;99.90;;;;;;5093842;28;20158;-70
2021/08/14 05:00:15;;;;;;;17.20;9.23;;;14.80;99.90;;;;;;5091450;28;20016;-69
2021/08/14 05:02:40;;;;;;;16.48;8.57;;;14.80;99.90;;;;;;5093901;28;20082;-72
2021/08/14 05:05:07;;;;;;;12.35;7.13;;;14.80;99.90;;;;;;5093314;28;20479;-69
2021/08/14 05:07:34;;;;;;;11.70;7.63;;;14.80;99.90;;;;;;5093995;28;20431;-69
2021/08/14 05:10:00;;;;;;;14.88;8.35;;;14.70;99.90;;;;;;5094118;28;20464;-69
2021/08/14 05:12:25;;;;;;;14.75;8.10;;;14.70;99.90;;;;;;5094234;28;20054;-69
2021/08/14 05:14:51;;;;;;;14.05;8.13;;;14.70;99.90;;;;;;5092077;28;20024;-69
2021/08/14 05:17:16;;;;;;;16.48;8.52;;;14.60;99.90;;;;;;5094260;28;20020;-69
2021/08/14 05:19:42;;;;;;;14.27;8.70;;;14.60;99.90;;;;;;5093864;28;20023;-69
2021/08/14 05:22:07;;;;;;;13.60;8.00;;;14.60;99.90;;;;;;5093565;28;20421;-70
2021/08/14 05:24:33;;;;;;;13.68;8.20;;;14.60;99.90;;;;;;5092854;28;20429;-70
2021/08/14 05:26:58;;;;;;;15.88;8.57;;;14.60;99.90;;;;;;5093677;28;20024;-69
2021/08/14 05:29:24;;;;;;;14.13;8.23;;;14.70;99.90;;;;;;5093367;28;20035;-70
2021/08/14 05:31:49;;;;;;;16.38;8.43;;;14.70;99.90;;;;;;5093715;28;20017;-70
2021/08/14 05:34:15;;;;;;;12.73;7.93;;;14.70;99.90;;;;;;5093592;28;20515;-69
2021/08/14 05:36:40;;;;;;;18.85;8.77;;;14.70;99.90;;;;;;5093162;28;20388;-69
2021/08/14 05:39:06;;;;;;;12.73;8.45;;;14.70;99.90;;;;;;5093840;28;20024;-70
2021/08/14 05:41:32;;;;;;;12.98;8.10;;;14.70;99.90;;;;;;5093486;28;20024;-70
2021/08/14 05:43:58;;;;;;;16.05;8.85;;;14.70;99.90;;;;;;5091664;28;20021;-70
2021/08/14 05:46:23;;;;;;;17.98;9.75;;;14.80;99.90;;;;;;5093867;28;20028;-70
2021/08/14 05:48:49;;;;;;;15.15;8.90;;;14.80;99.90;;;;;;5092870;28;20491;-70
2021/08/14 05:51:14;;;;;;;16.70;8.63;;;14.90;99.90;;;;;;5092348;28;20059;-69
2021/08/14 05:53:40;;;;;;;11.60;8.05;;;14.90;99.90;;;;;;5092235;28;20035;-69
2021/08/14 05:56:06;;;;;;;14.07;8.30;;;14.90;99.90;;;;;;5092972;28;20065;-69
2021/08/14 05:58:32;;;;;;;14.52;8.30;;;15.00;99.90;;;;;;5093533;28;20115;-69
2021/08/14 06:00:58;;;;;;;14.05;8.65;;;15.00;99.90;;;;;;5093100;28;20051;-69
2021/08/14 06:03:24;;;;;;;16.25;8.93;;;15.10;99.90;;;;;;5092710;28;20034;-69
2021/08/14 06:05:50;;;;;;;16.20;8.90;;;15.10;99.90;;;;;;5092995;28;20020;-70
2021/08/14 06:08:15;;;;;;;16.38;8.50;;;15.10;99.90;;;;;;5093462;28;20035;-69
2021/08/14 06:10:41;;;;;;;15.90;9.50;;;15.20;99.90;;;;;;5091953;28;20030;-69
2021/08/14 06:13:06;;;;;;;19.15;9.30;;;15.20;99.90;;;;;;5093110;28;20044;-71
2021/08/14 06:15:32;;;;;;;18.27;9.23;;;15.30;99.90;;;;;;5093282;28;20024;-69
2021/08/14 06:17:57;;;;;;;20.70;9.18;;;15.30;99.90;;;;;;5092248;28;20537;-70
2021/08/14 06:20:23;;;;;;;18.83;9.02;;;15.40;99.90;;;;;;5093063;28;20027;-70
2021/08/14 06:22:48;;;;;;;14.70;8.00;;;15.40;99.90;;;;;;5092879;28;20038;-70
2021/08/14 06:25:14;;;;;;;14.60;8.63;;;15.40;99.90;;;;;;5092418;28;20020;-76
2021/08/14 06:27:40;;;;;;;14.27;9.35;;;15.50;99.90;;;;;;5093080;28;20012;-69
2021/08/14 06:30:07;;;;;;;19.40;9.13;;;15.50;99.90;;;;;;5092931;28;20102;-70
2021/08/14 06:32:34;;;;;;;13.82;9.15;;;15.60;99.90;;;;;;5092366;28;20042;-70
2021/08/14 06:34:59;;;;;;;18.40;8.95;;;15.60;99.90;;;;;;5092701;28;20016;-72
2021/08/14 06:37:25;;;;;;;15.80;8.10;;;15.70;99.90;;;;;;5092961;28;20490;-71
2021/08/14 06:39:50;;;;;;;18.52;8.75;;;15.70;99.90;;;;;;5092093;28;20461;-69
2021/08/14 06:42:16;;;;;;;16.75;8.90;;;15.80;99.90;;;;;;5092896;28;20073;-69
2021/08/14 06:44:42;;;;;;;16.77;8.68;;;15.80;99.90;;;;;;5092577;28;20020;-71
2021/08/14 06:47:08;;;;;;;16.75;9.27;;;15.90;99.90;;;;;;5092285;28;20028;-70
2021/08/14 06:49:33;;;;;;;15.63;8.32;;;16.00;99.90;;;;;;5092799;28;20043;-71
2021/08/14 06:51:59;;;;;;;16.00;8.50;;;16.00;99.90;;;;;;5093162;28;20484;-70
2021/08/14 06:54:24;;;;;;;20.13;9.80;;;16.10;99.90;;;;;;5096251;28;20086;-69
2021/08/14 06:56:50;;;;;;;15.40;8.43;;;16.20;99.90;;;;;;5096644;28;20061;-71
2021/08/14 06:59:15;;;;;;;16.05;8.38;;;16.20;99.90;;;;;;5096244;28;20149;-69
2021/08/14 07:01:40;;;;;;;15.48;8.40;;;16.30;99.90;;;;;;5096595;28;20025;-70
2021/08/14 07:04:06;;;;;;;17.40;9.57;;;16.40;99.90;;;;;;5097122;28;20069;-69
2021/08/14 07:06:32;;;;;;;14.05;7.55;;;16.50;99.90;;;;;;5095109;28;20468;-69
2021/08/14 07:08:57;;;;;;;18.92;8.82;;;16.50;99.90;;;;;;5096346;28;20031;-69
2021/08/14 07:11:23;;;;;;;18.60;8.98;;;16.60;99.90;;;;;;5096455;28;20044;-69
2021/08/14 07:13:50;;;;;;;17.58;8.52;;;16.60;99.90;;;;;;5095443;28;20158;-71
2021/08/14 07:16:16;;;;;;;16.50;8.00;;;16.60;99.90;;;;;;5096613;28;20059;-69
2021/08/14 07:18:42;;;;;;;20.55;9.23;;;16.70;99.90;;;;;;5096314;28;20062;-68
2021/08/14 07:21:08;;;;;;;16.98;8.50;;;16.70;99.90;;;;;;5097090;28;20047;-69
2021/08/14 07:23:33;;;;;;;19.50;9.48;;;16.80;99.90;;;;;;5117013;28;20360;-69
2021/08/14 07:26:00;;;;;;;19.15;8.45;;;16.90;99.90;;;;;;5096618;28;20065;-70
2021/08/14 07:28:26;;;;;;;16.10;8.88;;;16.90;99.90;;;;;;5095724;28;20112;-69
2021/08/14 07:30:52;;;;;;;20.13;10.20;;;17.00;99.90;;;;;;5095982;28;20016;-70
2021/08/14 07:33:18;;;;;;;17.73;8.85;;;17.10;99.90;;;;;;5095826;28;20119;-71
2021/08/14 07:35:46;;;;;;;22.35;9.88;;;17.10;99.90;;;;;;5095259;28;20096;-73
2021/08/14 07:38:13;;;;;;;21.52;9.65;;;17.20;99.90;;;;;;5096155;28;20028;-70
2021/08/14 07:40:38;;;;;;;20.58;9.30;;;17.20;99.90;;;;;;5096157;28;20035;-69
2021/08/14 07:43:04;;;;;;;20.08;10.27;;;17.30;99.90;;;;;;5094013;28;20379;-69
2021/08/14 07:45:30;;;;;;;19.58;9.50;;;17.40;99.90;;;;;;5095977;28;20066;-70
2021/08/14 07:47:56;;;;;;;17.38;9.43;;;17.40;99.90;;;;;;5095904;28;20028;-69
2021/08/14 07:50:23;;;;;;;17.45;8.57;;;17.50;99.90;;;;;;5095191;28;20017;-79
2021/08/14 07:52:49;;;;;;;18.77;8.50;;;17.50;99.90;;;;;;5095525;28;20563;-71
2021/08/14 07:55:15;;;;;;;19.55;9.88;;;17.60;99.90;;;;;;5096172;28;20024;-69
2021/08/14 07:57:41;;;;;;;18.67;9.57;;;17.60;99.90;;;;;;5095198;28;20153;-69
2021/08/14 08:00:09;;;;;;;23.88;10.35;;;17.70;99.90;;;;;;5095797;28;20465;-70
2021/08/14 08:02:35;;;;;;;19.95;8.65;;;17.70;99.90;;;;;;5095174;28;20103;-74
2021/08/14 08:05:00;;;;;;;18.08;8.57;;;17.70;99.90;;;;;;5095492;28;20032;-81
2021/08/14 08:07:26;;;;;;;23.17;9.73;;;17.80;99.90;;;;;;5096231;28;20031;-76
2021/08/14 08:09:51;;;;;;;19.25;10.00;;;17.80;99.90;;;;;;5094655;28;20065;-81
2021/08/14 08:12:17;;;;;;;18.13;9.80;;;17.90;99.90;;;;;;5094955;28;20054;-81
2021/08/14 08:14:43;;;;;;;19.08;9.95;;;17.90;99.90;;;;;;5095683;28;20059;-81
2021/08/14 08:17:11;;;;;;;20.23;9.85;;;18.00;99.90;;;;;;5094159;28;20107;-72
2021/08/14 08:19:36;;;;;;;17.98;9.30;;;18.10;99.90;;;;;;5095482;28;20020;-71
2021/08/14 08:22:02;;;;;;;19.73;9.98;;;18.10;99.90;;;;;;5095089;28;20039;-80
2021/08/14 08:24:28;;;;;;;20.77;9.95;;;18.20;99.90;;;;;;5093960;28;20561;-77
2021/08/14 08:26:54;;;;;;;21.38;10.25;;;18.30;99.90;;;;;;5093805;28;20039;-77
2021/08/14 08:29:19;;;;;;;20.60;9.88;;;18.40;99.90;;;;;;5095375;28;20017;-73
2021/08/14 08:31:45;;;;;;;19.00;9.45;;;18.50;99.90;;;;;;5094548;28;20494;-79
2021/08/14 08:34:11;;;;;;;19.75;8.63;;;18.60;99.90;;;;;;5094114;28;20031;-79
2021/08/14 08:36:36;;;;;;;24.05;10.25;;;18.60;99.90;;;;;;5090912;28;20035;-69
2021/08/14 08:39:02;;;;;;;23.35;10.40;;;18.70;99.90;;;;;;5102418;28;20020;-70
2021/08/14 08:41:28;;;;;;;20.92;10.23;;;18.80;99.90;;;;;;5100749;28;20027;-76
2021/08/14 08:43:53;;;;;;;20.88;9.43;;;18.80;99.90;;;;;;5112157;28;20023;-73
2021/08/14 08:46:19;;;;;;;16.00;8.13;;;18.90;99.90;;;;;;5114940;28;20469;-71
2021/08/14 08:48:52;;;;;;;20.63;9.73;;;19.00;99.90;;;;;;5114459;28;20076;-69
2021/08/14 08:51:23;;;;;;;21.70;9.70;;;19.00;99.90;;;;;;5094264;28;20154;-71
2021/08/14 08:53:49;;;;;;;20.25;9.50;;;19.20;99.90;;;;;;5089159;28;20040;-77
2021/08/14 08:56:15;;;;;;;13.98;8.02;;;19.30;99.90;;;;;;5114754;28;20018;-71
2021/08/14 08:58:40;;;;;;;19.83;9.40;;;19.40;99.90;;;;;;5111670;28;20023;-78
2021/08/14 09:01:06;;;;;;;21.42;10.15;;;19.50;99.90;;;;;;5092692;28;20465;-86
2021/08/14 09:03:32;;;;;;;19.63;9.77;;;19.60;99.90;;;;;;5093272;28;20345;-80
2021/08/14 09:05:57;;;;;;;17.95;8.40;;;19.70;99.90;;;;;;5091622;28;20024;-80
2021/08/14 09:08:24;;;;;;;16.40;8.73;;;19.90;99.90;;;;;;5094104;28;20362;-74
2021/08/14 09:11:04;;;;;;;24.08;11.50;;;20.00;99.90;;;;;;5092506;28;20036;-76
2021/08/14 09:13:30;;;;;;;23.60;11.95;;;20.10;99.90;;;;;;5091956;28;20096;-74
2021/08/14 09:15:56;;;;;;;21.15;10.98;;;20.10;99.90;;;;;;5091867;28;20388;-72
2021/08/14 09:18:21;;;;;;;24.40;11.07;;;20.20;99.90;;;;;;5092068;28;20024;-74
2021/08/14 09:20:49;;;;;;;18.98;9.45;;;20.40;99.90;;;;;;5093088;28;20104;-73
2021/08/14 09:23:15;;;;;;;21.92;10.82;;;20.60;99.90;;;;;;5092654;28;20396;-72
2021/08/14 09:26:10;;;;;;;20.65;12.73;;;20.70;99.90;;;;;;5092156;28;20024;-74
2021/08/14 09:28:39;;;;;;;22.13;14.98;;;20.60;99.90;;;;;;5075516;28;20384;-72
2021/08/14 09:31:06;;;;;;;26.65;15.75;;;20.40;99.90;;;;;;5093225;28;20073;-74
2021/08/14 09:33:34;;;;;;;27.73;16.00;;;20.30;99.90;;;;;;5092224;28;20082;-71
2021/08/14 09:36:05;;;;;;;28.95;17.48;;;20.20;99.90;;;;;;5092004;28;20860;-73
2021/08/14 09:38:44;;;;;;;27.40;15.60;;;20.10;99.90;;;;;;5094634;28;20031;-81
2021/08/14 09:41:21;;;;;;;29.27;14.65;;;20.00;99.90;;;;;;5091434;28;20139;-70
2021/08/14 09:43:51;;;;;;;24.25;14.18;;;19.90;99.90;;;;;;5092812;28;20031;-79
2021/08/14 09:46:17;;;;;;;24.08;13.18;;;19.90;99.90;;;;;;5091485;28;20020;-77
2021/08/14 09:48:53;;;;;;;29.95;15.35;;;19.90;99.90;;;;;;5092697;28;20145;-80
2021/08/14 09:51:57;;;;;;;26.45;13.65;;;19.90;99.90;;;;;;5094729;28;20539;-91
2021/08/14 09:54:22;;;;;;;29.27;14.98;;;19.80;99.90;;;;;;5092768;28;20040;-79
2021/08/14 09:56:51;;;;;;;23.05;14.88;;;19.80;99.90;;;;;;5091689;28;20035;-85
2021/08/14 09:59:19;;;;;;;23.73;13.65;;;19.80;99.90;;;;;;5093664;28;20035;-85
2021/08/14 10:01:45;;;;;;;25.90;13.93;;;19.80;99.90;;;;;;5092278;28;20012;-86
2021/08/14 10:04:11;;;;;;;24.73;12.45;;;19.80;99.90;;;;;;5091250;28;20498;-83
2021/08/14 10:06:38;;;;;;;22.05;13.30;;;19.80;99.90;;;;;;5092366;28;20109;-85
2021/08/14 10:09:04;;;;;;;23.10;13.57;;;19.80;99.90;;;;;;5092604;28;20013;-81
2021/08/14 10:11:29;;;;;;;27.77;14.93;;;19.90;99.90;;;;;;5093046;28;20040;-82
2021/08/14 10:13:56;;;;;;;30.35;15.68;;;19.90;99.90;;;;;;5091601;28;20035;-83
2021/08/14 10:16:21;;;;;;;25.30;14.50;;;19.80;99.90;;;;;;5091849;28;20020;-74
2021/08/14 10:18:47;;;;;;;22.50;14.38;;;19.90;99.90;;;;;;5092616;28;20487;-79
2021/08/14 10:21:15;;;;;;;24.40;13.52;;;19.90;99.90;;;;;;5090823;28;20035;-78
2021/08/14 10:23:44;;;;;;;25.63;13.55;;;19.90;99.90;;;;;;5092887;28;20024;-73
2021/08/14 10:26:14;;;;;;;22.27;12.90;;;19.90;99.90;;;;;;5093447;28;20049;-83
2021/08/14 10:28:45;;;;;;;24.70;13.70;;;20.00;99.90;;;;;;5092085;28;20020;-83
2021/08/14 10:31:29;;;;;;;35.78;15.75;;;20.10;99.90;;;;;;5095181;28;20032;-77
2021/08/14 10:34:00;;;;;;;27.90;14.52;;;20.30;99.90;;;;;;5092671;28;20075;-75
2021/08/14 10:36:28;;;;;;;24.10;14.38;;;20.50;99.90;;;;;;5092105;28;20046;-81
2021/08/14 10:38:54;;;;;;;24.70;15.30;;;20.70;99.90;;;;;;5091642;28;20028;-79
2021/08/14 10:41:36;;;;;;;26.88;16.17;;;21.20;99.90;;;;;;5091689;28;20468;-80
2021/08/14 10:44:03;;;;;;;26.60;12.82;;;21.30;99.90;;;;;;5091665;28;20119;-79
2021/08/14 10:46:31;;;;;;;25.65;14.95;;;21.50;99.90;;;;;;5092908;28;20016;-78
2021/08/14 10:48:59;;;;;;;29.83;14.73;;;21.70;99.90;;;;;;5098411;28;20107;-80
2021/08/14 10:51:46;;;;;;;21.80;12.40;;;21.90;99.90;;;;;;5094301;28;20020;-86
2021/08/14 10:54:12;;;;;;;23.75;13.10;;;22.40;99.90;;;;;;5095439;28;20043;-83
2021/08/14 10:56:51;;;;;;;25.35;15.75;;;22.80;99.90;;;;;;5092942;28;20024;-86
2021/08/14 10:59:38;;;;;;;17.38;12.75;;;23.00;99.90;;;;;;5091652;28;20063;-82
2021/08/14 11:02:07;;;;;;;21.42;13.48;;;23.10;99.90;;;;;;5092471;28;20388;-82
2021/08/14 11:04:38;;;;;;;23.83;14.93;;;23.00;99.90;;;;;;5093280;28;20032;-82
2021/08/14 11:07:19;;;;;;;20.60;13.73;;;22.90;99.90;;;;;;5091278;28;20027;-74
2021/08/14 11:09:54;;;;;;;21.13;12.70;;;22.90;99.90;;;;;;5093101;28;20040;-76
2021/08/14 11:12:40;;;;;;;26.05;14.35;;;22.90;99.90;;;;;;5092720;28;20044;-75
2021/08/14 11:15:21;;;;;;;25.63;14.98;;;23.00;99.90;;;;;;5093915;28;20024;-77
2021/08/14 11:17:58;;;;;;;23.63;14.40;;;23.00;99.90;;;;;;5092532;28;20494;-72
2021/08/14 11:20:25;;;;;;;21.50;12.77;;;23.10;99.90;;;;;;5092179;28;20029;-73
2021/08/14 11:22:56;;;;;;;21.92;13.50;;;23.20;99.90;;;;;;5092427;28;20031;-82
2021/08/14 11:25:28;;;;;;;22.98;13.70;;;23.30;99.90;;;;;;5092458;28;20051;-83
2021/08/14 11:28:03;;;;;;;20.60;12.25;;;23.30;99.90;;;;;;5090949;28;20028;-73
2021/08/14 11:30:38;;;;;;;25.08;13.55;;;23.40;99.90;;;;;;5093295;28;20024;-81
2021/08/14 11:33:06;;;;;;;19.55;11.40;;;23.40;99.90;;;;;;5107841;28;20023;-78
2021/08/14 11:35:33;;;;;;;21.45;12.48;;;23.40;99.90;;;;;;5090945;28;20028;-76
2021/08/14 11:38:04;;;;;;;22.65;12.55;;;23.40;99.90;;;;;;5093534;28;20055;-86
2021/08/14 11:40:34;;;;;;;21.88;12.55;;;23.40;99.90;;;;;;5095036;28;20047;-81
2021/08/14 11:43:09;;;;;;;17.88;11.45;;;23.40;99.90;;;;;;5095426;28;20054;-83
2021/08/14 11:45:37;;;;;;;25.08;12.98;;;23.30;99.90;;;;;;5097142;28;20073;-83
2021/08/14 11:48:11;;;;;;;26.58;14.07;;;23.30;99.90;;;;;;5094675;28;20050;-85
2021/08/14 11:50:39;;;;;;;17.02;12.02;;;23.00;99.90;;;;;;5095756;28;20016;-88
2021/08/14 11:53:07;;;;;;;29.15;13.45;;;22.50;99.90;;;;;;5094955;28;20047;-89
2021/08/14 11:55:32;;;;;;;15.05;11.10;;;22.20;99.90;;;;;;5096265;28;20067;-88
2021/08/14 11:57:58;;;;;;;21.83;10.77;;;22.00;99.90;;;;;;5094990;28;20024;-88
2021/08/14 12:00:33;;;;;;;20.40;11.23;;;21.90;99.90;;;;;;5096026;28;20021;-78
2021/08/14 12:03:09;;;;;;;21.63;11.43;;;22.20;99.90;;;;;;5095434;28;20057;-84
2021/08/14 12:05:37;;;;;;;20.98;11.93;;;22.30;99.90;;;;;;5096259;28;20042;-79
2021/08/14 12:08:03;;;;;;;18.85;11.85;;;22.10;99.90;;;;;;5093851;28;20031;-80
2021/08/14 12:10:36;;;;;;;19.58;11.55;;;22.00;99.90;;;;;;5093543;28;20077;-87
2021/08/14 12:13:05;;;;;;;19.52;12.50;;;22.10;99.90;;;;;;5094830;28;20043;-73
2021/08/14 12:15:46;;;;;;;22.67;11.50;;;22.30;99.90;;;;;;5095344;28;20024;-78
2021/08/14 12:18:11;;;;;;;17.15;11.18;;;22.60;99.90;;;;;;5094216;28;20027;-76
2021/08/14 12:20:42;;;;;;;22.60;12.85;;;22.60;99.90;;;;;;5095865;28;20103;-80
2021/08/14 12:23:27;;;;;;;16.10;10.10;;;22.60;99.90;;;;;;5094362;28;20368;-82
2021/08/14 12:26:01;;;;;;;20.33;11.93;;;22.80;99.90;;;;;;5093620;28;20035;-78
2021/08/14 12:28:28;;;;;;;17.17;10.70;;;23.10;99.90;;;;;;5093888;28;20055;-75
2021/08/14 12:31:03;;;;;;;22.17;12.65;;;23.30;99.90;;;;;;5097107;28;20012;-89
2021/08/14 12:33:45;;;;;;;16.25;10.85;;;23.60;99.90;;;;;;5094854;28;20374;-87